createdAt,value
2024-03-24T00:00:53.045Z,0
2024-03-24T00:02:49.780Z,1
2024-03-24T00:04:49.852Z,1
2024-03-24T00:06:49.900Z,1
2024-03-24T00:08:49.818Z,1
2024-03-24T00:10:49.896Z,1
2024-03-24T00:12:49.702Z,1
2024-03-24T00:14:49.758Z,1
2024-03-24T00:16:49.734Z,1
2024-03-24T00:18:49.671Z,1
2024-03-24T00:20:49.615Z,1
2024-03-24T00:22:49.627Z,1
2024-03-24T00:24:49.742Z,1
2024-03-24T00:26:49.595Z,1
2024-03-24T00:28:53.745Z,1
2024-03-24T00:30:49.715Z,1
2024-03-24T00:32:49.858Z,1
2024-03-24T00:34:49.666Z,1
2024-03-24T00:36:49.887Z,1
2024-03-24T00:38:49.663Z,1
2024-03-24T00:40:53.262Z,1
2024-03-24T00:42:49.684Z,1
2024-03-24T00:44:49.678Z,1
2024-03-24T00:46:53.278Z,1
2024-03-24T00:48:49.696Z,1
2024-03-24T00:50:49.628Z,1
2024-03-24T00:52:49.612Z,1
2024-03-24T00:54:49.946Z,1
2024-03-24T00:56:49.860Z,1
2024-03-24T00:58:49.631Z,1
2024-03-24T01:00:49.954Z,1
2024-03-24T01:02:49.879Z,1
2024-03-24T01:04:49.750Z,1
2024-03-24T01:06:49.937Z,1
2024-03-24T01:08:49.661Z,1
2024-03-24T01:10:49.745Z,1
2024-03-24T01:12:53.556Z,1
2024-03-24T01:14:50.045Z,1
2024-03-24T01:16:49.769Z,1
2024-03-24T01:18:49.974Z,1
2024-03-24T01:20:49.609Z,1
2024-03-24T01:22:49.683Z,1
2024-03-24T01:24:49.630Z,1
2024-03-24T01:26:49.628Z,1
2024-03-24T01:28:52.910Z,1
2024-03-24T01:30:49.718Z,1
2024-03-24T01:32:49.650Z,1
2024-03-24T01:34:49.864Z,1
2024-03-24T01:36:49.900Z,1
2024-03-24T01:38:49.761Z,1
2024-03-24T01:40:53.377Z,1
2024-03-24T01:42:49.830Z,1
2024-03-24T01:44:50.004Z,1
2024-03-24T01:46:49.666Z,1
2024-03-24T01:48:49.625Z,1
2024-03-24T01:50:49.636Z,1
2024-03-24T01:52:49.657Z,1
2024-03-24T01:54:49.641Z,1
2024-03-24T01:56:49.622Z,1
2024-03-24T01:58:49.818Z,1
2024-03-24T02:00:49.807Z,1
2024-03-24T02:02:49.866Z,1
2024-03-24T02:04:49.860Z,1
2024-03-24T02:06:49.807Z,1
2024-03-24T02:08:49.906Z,1
2024-03-24T02:10:49.874Z,1
2024-03-24T02:12:49.881Z,1
2024-03-24T02:14:49.878Z,1
2024-03-24T02:16:49.885Z,1
2024-03-24T02:18:51.221Z,1
2024-03-24T02:20:49.649Z,1
2024-03-24T02:22:49.736Z,1
2024-03-24T02:24:52.970Z,1
2024-03-24T02:26:49.877Z,1
2024-03-24T02:28:49.730Z,1
2024-03-24T02:30:50.190Z,1
2024-03-24T02:32:49.779Z,1
2024-03-24T02:34:49.867Z,1
2024-03-24T02:36:53.646Z,1
2024-03-24T02:38:49.789Z,1
2024-03-24T02:40:53.611Z,1
2024-03-24T02:42:49.618Z,1
2024-03-24T02:44:49.682Z,1
2024-03-24T02:46:52.894Z,1
2024-03-24T02:48:53.532Z,1
2024-03-24T02:50:49.603Z,1
2024-03-24T02:52:49.636Z,1
2024-03-24T02:54:49.822Z,1
2024-03-24T02:56:49.712Z,1
2024-03-24T02:58:49.846Z,1
2024-03-24T03:00:49.678Z,1
2024-03-24T03:02:49.872Z,1
2024-03-24T03:04:49.680Z,1
2024-03-24T03:06:49.891Z,1
2024-03-24T03:08:49.863Z,1
2024-03-24T03:10:49.715Z,1
2024-03-24T03:12:49.874Z,1
2024-03-24T03:14:49.764Z,1
2024-03-24T03:16:49.714Z,1
2024-03-24T03:18:49.616Z,1
2024-03-24T03:20:49.816Z,1
2024-03-24T03:22:53.437Z,1
2024-03-24T03:24:49.625Z,1
2024-03-24T03:26:49.615Z,1
2024-03-24T03:28:49.711Z,1
2024-03-24T03:30:49.742Z,1
2024-03-24T03:32:49.858Z,1
2024-03-24T03:34:49.866Z,1
2024-03-24T03:36:50.140Z,1
2024-03-24T03:38:50.289Z,1
2024-03-24T03:40:49.699Z,1
2024-03-24T03:42:53.142Z,1
2024-03-24T03:44:49.928Z,1
2024-03-24T03:46:49.796Z,1
2024-03-24T03:48:49.660Z,1
2024-03-24T03:50:49.898Z,1
2024-03-24T03:52:49.857Z,1
2024-03-24T03:54:49.907Z,1
2024-03-24T03:56:53.433Z,1
2024-03-24T03:58:49.862Z,1
2024-03-24T04:00:50.181Z,1
2024-03-24T04:02:49.803Z,1
2024-03-24T04:04:50.041Z,1
2024-03-24T04:06:50.199Z,1
2024-03-24T04:08:49.897Z,1
2024-03-24T04:10:49.733Z,1
2024-03-24T04:12:53.605Z,1
2024-03-24T04:14:53.341Z,1
2024-03-24T04:16:49.523Z,1
2024-03-24T04:18:49.798Z,1
2024-03-24T04:20:53.024Z,1
2024-03-24T04:22:49.591Z,1
2024-03-24T04:24:49.764Z,0
2024-03-24T04:26:49.720Z,0
2024-03-24T04:28:49.812Z,0
2024-03-24T04:30:49.903Z,0
2024-03-24T04:32:49.908Z,0.1
2024-03-24T04:34:49.620Z,0.1
2024-03-24T04:36:49.803Z,0.3
2024-03-24T04:38:49.892Z,0.4
2024-03-24T04:40:49.661Z,0.4
2024-03-24T04:42:49.917Z,0.4
2024-03-24T04:44:49.850Z,1.1
2024-03-24T04:46:49.756Z,1.4
2024-03-24T04:48:50.188Z,1.7
2024-03-24T04:50:49.851Z,3.5
2024-03-24T04:52:49.987Z,6
2024-03-24T04:54:49.756Z,8.6
2024-03-24T04:56:53.643Z,12.8
2024-03-24T04:58:52.693Z,15.6
2024-03-24T05:00:49.834Z,17.3
2024-03-24T05:02:53.012Z,28.5
2024-03-24T05:04:49.826Z,47
2024-03-24T05:06:53.454Z,73.7
2024-03-24T05:08:53.344Z,99.5
2024-03-24T05:10:49.614Z,127.7
2024-03-24T05:12:50.176Z,156
2024-03-24T05:14:53.369Z,181.3
2024-03-24T05:16:49.824Z,221.4
2024-03-24T05:18:49.744Z,257.2
2024-03-24T05:20:49.823Z,284.3
2024-03-24T05:22:49.767Z,330.3
2024-03-24T05:24:53.278Z,383.8
2024-03-24T05:26:49.728Z,445.9
2024-03-24T05:28:55.506Z,492.7
2024-03-24T05:30:49.931Z,544.6
2024-03-24T05:32:49.846Z,601.8
2024-03-24T05:34:49.857Z,665.1
2024-03-24T05:36:49.973Z,772.8
2024-03-24T05:38:49.640Z,943.9
2024-03-24T05:40:50.083Z,1274.1
2024-03-24T05:42:49.983Z,1274.1
2024-03-24T05:44:49.797Z,1212
2024-03-24T05:46:52.859Z,1152.9
2024-03-24T05:48:49.700Z,1274.1
2024-03-24T05:50:52.955Z,1274.1
2024-03-24T05:52:49.950Z,1274.1
2024-03-24T05:54:50.144Z,1152.9
2024-03-24T05:56:49.985Z,1096.6
2024-03-24T05:58:53.639Z,943.9
2024-03-24T06:00:49.905Z,943.9
2024-03-24T06:02:49.668Z,854.1
2024-03-24T06:04:49.736Z,665.1
2024-03-24T06:06:53.604Z,572.5
2024-03-24T06:08:49.636Z,632.7
2024-03-24T06:10:49.776Z,992.3
2024-03-24T06:12:49.667Z,1636
2024-03-24T06:14:50.143Z,1719.9
2024-03-24T06:16:49.624Z,1480.3
2024-03-24T06:18:49.757Z,1339.4
2024-03-24T06:20:53.177Z,1274.1
2024-03-24T06:22:49.761Z,1339.4
2024-03-24T06:24:49.842Z,1339.4
2024-03-24T06:26:50.014Z,1408.1
2024-03-24T06:28:53.394Z,1556.2
2024-03-24T06:30:49.661Z,1556.2
2024-03-24T06:32:49.664Z,1480.3
2024-03-24T06:34:49.912Z,1556.2
2024-03-24T06:36:49.954Z,1808
2024-03-24T06:38:49.643Z,1998.2
2024-03-24T06:40:49.867Z,2208.3
2024-03-24T06:42:49.672Z,2208.3
2024-03-24T06:44:49.765Z,2208.3
2024-03-24T06:46:50.010Z,2440.6
2024-03-24T06:48:53.709Z,2565.7
2024-03-24T06:50:49.687Z,2981
2024-03-24T06:52:49.755Z,3641
2024-03-24T06:54:49.983Z,3641
2024-03-24T06:56:49.843Z,6974.4
2024-03-24T06:58:49.724Z,4447.1
2024-03-24T07:00:52.877Z,4675.1
2024-03-24T07:02:50.195Z,5431.7
2024-03-24T07:04:49.855Z,5710.1
2024-03-24T07:06:49.824Z,6310.7
2024-03-24T07:08:49.630Z,10404.6
2024-03-24T07:10:49.749Z,4914.8
2024-03-24T07:12:49.667Z,4230.2
2024-03-24T07:14:49.908Z,4230.2
2024-03-24T07:16:49.682Z,5166.8
2024-03-24T07:18:52.840Z,6634.2
2024-03-24T07:20:49.684Z,5431.7
2024-03-24T07:22:49.894Z,8103.1
2024-03-24T07:24:49.892Z,8518.5
2024-03-24T07:26:49.790Z,7707.9
2024-03-24T07:28:49.657Z,6310.7
2024-03-24T07:30:52.843Z,11498.8
2024-03-24T07:32:49.740Z,19930.4
2024-03-24T07:34:50.135Z,4675.1
2024-03-24T07:36:49.720Z,2981
2024-03-24T07:38:49.818Z,2981
2024-03-24T07:40:49.638Z,3294.5
2024-03-24T07:42:50.234Z,3133.8
2024-03-24T07:44:53.389Z,2208.3
2024-03-24T07:46:49.556Z,1998.2
2024-03-24T07:48:53.624Z,1808
2024-03-24T07:50:49.806Z,2321.6
2024-03-24T07:52:49.675Z,1900.7
2024-03-24T07:54:49.892Z,2208.3
2024-03-24T07:56:49.813Z,2208.3
2024-03-24T07:58:49.815Z,2697.3
2024-03-24T08:00:53.548Z,2321.6
2024-03-24T08:02:52.828Z,4023.9
2024-03-24T08:04:49.652Z,6002.9
2024-03-24T08:06:53.490Z,5710.1
2024-03-24T08:08:49.714Z,5710.1
2024-03-24T08:10:52.952Z,5431.7
2024-03-24T08:12:50.278Z,5710.1
2024-03-24T08:14:49.971Z,5710.1
2024-03-24T08:16:49.802Z,6002.9
2024-03-24T08:18:49.688Z,7332
2024-03-24T08:20:49.688Z,5710.1
2024-03-24T08:22:49.611Z,5710.1
2024-03-24T08:24:49.879Z,6002.9
2024-03-24T08:26:49.889Z,2981
2024-03-24T08:28:53.670Z,2981
2024-03-24T08:30:53.664Z,2697.3
2024-03-24T08:32:49.624Z,2565.7
2024-03-24T08:34:49.650Z,3641
2024-03-24T08:36:49.924Z,3641
2024-03-24T08:38:49.707Z,3641
2024-03-24T08:40:49.987Z,3463.4
2024-03-24T08:42:53.421Z,4914.8
2024-03-24T08:44:53.620Z,4914.8
2024-03-24T08:46:49.658Z,6310.7
2024-03-24T08:48:50.065Z,9897.1
2024-03-24T08:50:49.671Z,8518.5
2024-03-24T08:52:49.908Z,12708.2
2024-03-24T08:57:01.708Z,12708.2
2024-03-24T08:58:58.812Z,13359.7
2024-03-24T09:01:03.047Z,14764.8
2024-03-24T09:02:58.632Z,13359.7
2024-03-24T09:05:00.451Z,8518.5
2024-03-24T09:06:58.671Z,6634.2
2024-03-24T09:09:03.078Z,9897.1
2024-03-24T09:10:58.641Z,14764.8
2024-03-24T09:13:00.105Z,14044.7
2024-03-24T09:14:58.804Z,13359.7
2024-03-24T09:17:02.852Z,9897.1
2024-03-24T09:18:58.676Z,9414.4
2024-03-24T09:21:00.253Z,8103.1
2024-03-24T09:22:58.676Z,8518.5
2024-03-24T09:25:00.565Z,8103.1
2024-03-24T09:26:58.782Z,9414.4
2024-03-24T09:29:00.107Z,10404.6
2024-03-24T09:30:58.683Z,11498.8
2024-03-24T09:33:03.521Z,10938
2024-03-24T09:35:02.209Z,10938
2024-03-24T09:37:03.665Z,10404.6
2024-03-24T09:38:58.979Z,8518.5
2024-03-24T09:41:03.686Z,9414.4
2024-03-24T09:42:58.811Z,9414.4
2024-03-24T09:45:00.021Z,9897.1
2024-03-24T09:46:58.722Z,11498.8
2024-03-24T09:49:00.032Z,12088.4
2024-03-24T09:50:58.923Z,12708.2
2024-03-24T09:53:02.263Z,12708.2
2024-03-24T09:54:58.779Z,12088.4
2024-03-24T09:57:02.194Z,14764.8
2024-03-24T09:58:58.974Z,15521.8
2024-03-24T10:01:00.486Z,17154.2
2024-03-24T10:02:58.730Z,14764.8
2024-03-24T10:04:59.994Z,16317.6
2024-03-24T10:06:58.675Z,15521.8
2024-03-24T10:09:00.120Z,12088.4
2024-03-24T10:10:58.912Z,13359.7
2024-03-24T10:13:00.014Z,13359.7
2024-03-24T10:14:58.812Z,16317.6
2024-03-24T10:17:00.673Z,13359.7
2024-03-24T10:18:58.750Z,14044.7
2024-03-24T10:20:59.805Z,10404.6
2024-03-24T10:22:58.806Z,13359.7
2024-03-24T10:25:03.512Z,14764.8
2024-03-24T10:26:58.886Z,9897.1
2024-03-24T10:29:02.032Z,8103.1
2024-03-24T10:30:58.832Z,6310.7
2024-03-24T10:33:00.901Z,6974.4
2024-03-24T10:34:58.889Z,6974.4
2024-03-24T10:37:01.543Z,5431.7
2024-03-24T10:38:58.893Z,4230.2
2024-03-24T10:41:02.654Z,4675.1
2024-03-24T10:42:58.719Z,5166.8
2024-03-24T10:45:02.599Z,4914.8
2024-03-24T10:46:58.764Z,3463.4
2024-03-24T10:49:04.295Z,3133.8
2024-03-24T10:50:59.014Z,3641
2024-03-24T10:53:00.490Z,3641
2024-03-24T10:54:58.756Z,3641
2024-03-24T10:57:03.102Z,4023.9
2024-03-24T10:58:58.769Z,4023.9
2024-03-24T11:01:00.910Z,4230.2
2024-03-24T11:02:58.807Z,4447.1
2024-03-24T11:05:00.371Z,4230.2
2024-03-24T11:06:58.866Z,4023.9
2024-03-24T11:09:02.612Z,3641
2024-03-24T11:10:58.844Z,3294.5
2024-03-24T11:13:00.498Z,2981
2024-03-24T11:14:58.923Z,2697.3
2024-03-24T11:17:01.630Z,2440.6
2024-03-24T11:18:58.846Z,2835.6
2024-03-24T11:21:01.154Z,2981
2024-03-24T11:22:58.841Z,2981
2024-03-24T11:25:01.653Z,2835.6
2024-03-24T11:26:58.764Z,2697.3
2024-03-24T11:29:01.540Z,2440.6
2024-03-24T11:30:58.734Z,2208.3
2024-03-24T11:33:03.623Z,1900.7
2024-03-24T11:34:58.882Z,1719.9
2024-03-24T11:37:04.445Z,1719.9
2024-03-24T11:38:58.947Z,2100.6
2024-03-24T11:41:00.033Z,2208.3
2024-03-24T11:42:58.871Z,2100.6
2024-03-24T11:45:03.073Z,1900.7
2024-03-24T11:46:58.676Z,1998.2
2024-03-24T11:49:00.466Z,2100.6
2024-03-24T11:50:58.735Z,2697.3
2024-03-24T11:53:03.454Z,4447.1
2024-03-24T11:54:58.893Z,6002.9
2024-03-24T11:57:00.616Z,5166.8
2024-03-24T11:58:58.839Z,3463.4
2024-03-24T12:01:02.043Z,2697.3
2024-03-24T12:02:58.938Z,1900.7
2024-03-24T12:05:04.160Z,1274.1
2024-03-24T12:06:58.821Z,992.3
2024-03-24T12:09:04.712Z,1408.1
2024-03-24T12:10:58.932Z,3463.4
2024-03-24T12:13:00.520Z,4914.8
2024-03-24T12:14:58.909Z,4914.8
2024-03-24T12:17:01.482Z,6310.7
2024-03-24T12:18:58.918Z,7707.9
2024-03-24T12:21:00.168Z,10404.6
2024-03-24T12:22:58.735Z,9897.1
2024-03-24T12:25:00.259Z,9897.1
2024-03-24T12:26:58.843Z,8955.3
2024-03-24T12:29:01.911Z,6974.4
2024-03-24T12:30:58.962Z,6310.7
2024-03-24T12:33:02.110Z,6974.4
2024-03-24T12:34:58.881Z,7332
2024-03-24T12:37:00.294Z,7707.9
2024-03-24T12:38:58.874Z,6974.4
2024-03-24T12:41:02.130Z,5710.1
2024-03-24T12:42:59.000Z,5431.7
2024-03-24T12:44:59.790Z,5431.7
2024-03-24T12:46:58.844Z,4675.1
2024-03-24T12:49:00.041Z,3294.5
2024-03-24T12:50:59.060Z,3294.5
2024-03-24T12:53:02.077Z,3641
2024-03-24T12:54:59.023Z,3463.4
2024-03-24T12:57:00.524Z,3463.4
2024-03-24T12:58:58.853Z,3463.4
2024-03-24T13:01:00.910Z,2981
2024-03-24T13:02:57.558Z,3641
2024-03-24T13:05:00.887Z,4675.1
2024-03-24T13:06:59.019Z,4914.8
2024-03-24T13:09:00.620Z,4023.9
2024-03-24T13:11:02.884Z,3294.5
2024-03-24T13:13:00.471Z,2440.6
2024-03-24T13:14:59.135Z,2321.6
2024-03-24T13:17:04.572Z,4230.2
2024-03-24T13:18:58.940Z,6002.9
2024-03-24T13:21:04.794Z,7707.9
2024-03-24T13:22:58.849Z,8518.5
2024-03-24T13:25:03.260Z,9897.1
2024-03-24T13:26:58.934Z,9897.1
2024-03-24T13:29:00.510Z,5431.7
2024-03-24T13:30:59.026Z,3827.6
2024-03-24T13:33:02.027Z,2981
2024-03-24T13:34:58.917Z,2565.7
2024-03-24T13:37:01.664Z,2981
2024-03-24T13:38:58.779Z,5431.7
2024-03-24T13:41:00.622Z,10404.6
2024-03-24T13:43:00.046Z,9897.1
2024-03-24T13:45:01.099Z,8955.3
2024-03-24T13:46:58.913Z,7707.9
2024-03-24T13:49:00.578Z,7707.9
2024-03-24T13:50:58.906Z,6634.2
2024-03-24T13:52:59.820Z,6310.7
2024-03-24T13:54:59.467Z,6002.9
2024-03-24T13:57:05.019Z,4675.1
2024-03-24T13:58:58.862Z,3463.4
2024-03-24T14:01:04.862Z,3133.8
2024-03-24T14:02:59.125Z,2835.6
2024-03-24T14:05:05.205Z,1900.7
2024-03-24T14:06:59.754Z,1808
2024-03-24T14:09:03.951Z,1808
2024-03-24T14:10:58.919Z,1719.9
2024-03-24T14:13:06.147Z,1808
2024-03-24T14:14:58.807Z,2100.6
2024-03-24T14:17:02.147Z,1900.7
2024-03-24T14:19:01.061Z,1408.1
2024-03-24T14:21:01.747Z,1274.1
2024-03-24T14:22:58.808Z,1480.3
2024-03-24T14:25:03.077Z,1096.6
2024-03-24T14:26:58.884Z,1096.6
2024-03-24T14:29:00.568Z,1096.6
2024-03-24T14:30:58.975Z,1096.6
2024-03-24T14:33:00.563Z,1152.9
2024-03-24T14:34:58.853Z,1274.1
2024-03-24T14:37:00.203Z,1408.1
2024-03-24T14:38:58.905Z,1556.2
2024-03-24T14:41:01.937Z,1480.3
2024-03-24T14:42:59.567Z,1212
2024-03-24T14:45:01.758Z,854.1
2024-03-24T14:46:58.995Z,665.1
2024-03-24T14:49:02.426Z,572.5
2024-03-24T14:50:58.870Z,632.7
2024-03-24T14:53:00.638Z,665.1
2024-03-24T14:55:00.441Z,943.9
2024-03-24T14:57:02.134Z,1212
2024-03-24T14:58:58.871Z,1212
2024-03-24T15:01:01.989Z,1274.1
2024-03-24T15:02:58.967Z,1096.6
2024-03-24T15:05:00.571Z,1556.2
2024-03-24T15:06:58.729Z,1480.3
2024-03-24T15:09:00.214Z,1096.6
2024-03-24T15:10:58.766Z,1408.1
2024-03-24T15:13:02.638Z,1636
2024-03-24T15:14:58.874Z,1480.3
2024-03-24T15:17:03.217Z,1808
2024-03-24T15:18:58.933Z,1636
2024-03-24T15:21:00.706Z,572.5
2024-03-24T15:22:58.808Z,270.4
2024-03-24T15:25:00.265Z,270.4
2024-03-24T15:26:58.876Z,572.5
2024-03-24T15:29:04.204Z,2565.7
2024-03-24T15:30:59.430Z,6002.9
2024-03-24T15:33:04.389Z,6634.2
2024-03-24T15:34:58.932Z,7707.9
2024-03-24T15:37:00.539Z,7332
2024-03-24T15:38:58.896Z,6310.7
2024-03-24T15:41:00.560Z,6002.9
2024-03-24T15:42:58.777Z,5710.1
2024-03-24T15:45:00.590Z,5166.8
2024-03-24T15:46:58.878Z,4914.8
2024-03-24T15:49:05.063Z,6002.9
2024-03-24T15:50:59.161Z,6310.7
2024-03-24T15:53:03.315Z,6002.9
2024-03-24T15:54:58.863Z,5710.1
2024-03-24T15:57:00.102Z,5710.1
2024-03-24T15:58:58.884Z,4447.1
2024-03-24T16:01:03.010Z,4914.8
2024-03-24T16:02:59.079Z,4675.1
2024-03-24T16:05:02.162Z,4675.1
2024-03-24T16:06:58.788Z,4675.1
2024-03-24T16:09:03.328Z,4230.2
2024-03-24T16:10:58.774Z,3463.4
2024-03-24T16:13:04.438Z,4023.9
2024-03-24T16:14:59.113Z,4230.2
2024-03-24T16:17:00.602Z,4230.2
2024-03-24T16:18:58.865Z,3641
2024-03-24T16:21:03.633Z,3294.5
2024-03-24T16:22:58.764Z,1998.2
2024-03-24T16:25:03.556Z,1274.1
2024-03-24T16:26:59.002Z,943.9
2024-03-24T16:29:00.249Z,854.1
2024-03-24T16:30:58.901Z,1212
2024-03-24T16:33:00.703Z,2208.3
2024-03-24T16:34:58.734Z,2697.3
2024-03-24T16:37:02.784Z,2321.6
2024-03-24T16:38:59.085Z,1998.2
2024-03-24T16:41:00.609Z,1719.9
2024-03-24T16:42:58.981Z,1480.3
2024-03-24T16:45:02.439Z,1152.9
2024-03-24T16:46:59.144Z,992.3
2024-03-24T16:49:00.640Z,1043.1
2024-03-24T16:50:59.079Z,665.1
2024-03-24T16:53:03.024Z,492.7
2024-03-24T16:54:58.825Z,383.8
2024-03-24T16:57:00.599Z,221.4
2024-03-24T16:58:59.215Z,190.6
2024-03-24T17:01:00.929Z,148.4
2024-03-24T17:02:59.171Z,127.7
2024-03-24T17:05:03.021Z,127.7
2024-03-24T17:06:59.134Z,141.2
2024-03-24T17:09:04.823Z,257.2
2024-03-24T17:10:59.059Z,632.7
2024-03-24T17:13:02.042Z,632.7
2024-03-24T17:15:00.736Z,544.6
2024-03-24T17:17:00.544Z,445.9
2024-03-24T17:18:58.862Z,383.8
2024-03-24T17:21:00.619Z,330.3
2024-03-24T17:22:59.012Z,270.4
2024-03-24T17:25:00.603Z,232.8
2024-03-24T17:26:59.060Z,190.6
2024-03-24T17:29:03.465Z,156
2024-03-24T17:31:00.318Z,134.3
2024-03-24T17:32:58.988Z,115.6
2024-03-24T17:34:59.014Z,99.5
2024-03-24T17:36:58.953Z,81.5
2024-03-24T17:38:59.134Z,63.4
2024-03-24T17:40:59.286Z,49.4
2024-03-24T17:42:58.880Z,36.6
2024-03-24T17:44:58.925Z,25.8
2024-03-24T17:46:58.875Z,18.2
2024-03-24T17:48:58.998Z,12.2
2024-03-24T17:50:59.219Z,8.2
2024-03-24T17:52:58.883Z,5.5
2024-03-24T17:54:59.035Z,3.5
2024-03-24T17:56:58.880Z,2.5
2024-03-24T17:58:59.083Z,1.6
2024-03-24T18:00:59.019Z,1.1
2024-03-24T18:02:59.005Z,0.7
2024-03-24T18:04:59.048Z,0.4
2024-03-24T18:06:59.151Z,0.3
2024-03-24T18:08:59.454Z,0.1
2024-03-24T18:10:58.884Z,0.1
2024-03-24T18:12:58.945Z,0.1
2024-03-24T18:14:59.061Z,0
2024-03-24T18:16:59.141Z,0
2024-03-24T18:18:58.961Z,0
2024-03-24T18:20:58.947Z,1
2024-03-24T18:22:59.239Z,1
2024-03-24T18:24:58.897Z,1
2024-03-24T18:26:59.263Z,1
2024-03-24T18:28:59.091Z,1
2024-03-24T18:30:59.115Z,1
2024-03-24T18:32:59.342Z,1
2024-03-24T18:34:59.050Z,1
2024-03-24T18:36:58.942Z,1
2024-03-24T18:38:56.230Z,1
2024-03-24T18:40:58.955Z,1
2024-03-24T18:42:58.946Z,1
2024-03-24T18:44:59.209Z,1
2024-03-24T18:46:59.033Z,1
2024-03-24T18:48:58.907Z,1
2024-03-24T18:50:59.171Z,1
2024-03-24T18:52:59.042Z,1
2024-03-24T18:54:59.074Z,1
2024-03-24T18:56:58.953Z,1
2024-03-24T18:58:59.182Z,1
2024-03-24T19:00:58.974Z,1
2024-03-24T19:02:56.251Z,1
2024-03-24T19:04:59.071Z,1
2024-03-24T19:06:59.017Z,1
2024-03-24T19:08:59.167Z,1
2024-03-24T19:10:58.839Z,1
2024-03-24T19:12:58.881Z,1
2024-03-24T19:14:59.513Z,0
2024-03-24T19:16:58.861Z,1
2024-03-24T19:18:58.899Z,0
2024-03-24T19:20:58.889Z,1
2024-03-24T19:22:58.967Z,0
2024-03-24T19:24:58.908Z,0
2024-03-24T19:26:58.941Z,1
2024-03-24T19:28:58.887Z,1
2024-03-24T19:30:59.000Z,1
2024-03-24T19:32:59.004Z,1
2024-03-24T19:34:58.958Z,0
2024-03-24T19:36:59.139Z,0
2024-03-24T19:38:58.867Z,0
2024-03-24T19:40:59.128Z,0
2024-03-24T19:42:58.893Z,0
2024-03-24T19:44:59.072Z,0
2024-03-24T19:46:58.833Z,0
2024-03-24T19:48:58.927Z,0
2024-03-24T19:50:59.074Z,0
2024-03-24T19:52:59.102Z,0
2024-03-24T19:54:58.942Z,1
2024-03-24T19:56:59.084Z,0
2024-03-24T19:58:59.082Z,0
2024-03-24T20:00:58.969Z,0
2024-03-24T20:02:59.156Z,0
2024-03-24T20:04:58.843Z,0
2024-03-24T20:06:58.836Z,0
2024-03-24T20:08:59.202Z,0
2024-03-24T20:10:59.048Z,0
2024-03-24T20:12:59.023Z,0.1
2024-03-24T20:14:59.006Z,0
2024-03-24T20:16:59.161Z,0
2024-03-24T20:18:59.002Z,0
2024-03-24T20:20:59.133Z,0
2024-03-24T20:22:58.909Z,0
2024-03-24T20:24:58.890Z,0
2024-03-24T20:26:59.150Z,0
2024-03-24T20:28:59.005Z,0
2024-03-24T20:30:59.072Z,0
2024-03-24T20:32:59.094Z,0
2024-03-24T20:34:59.227Z,0
2024-03-24T20:36:59.109Z,0
2024-03-24T20:38:58.947Z,0
2024-03-24T20:40:59.101Z,0
2024-03-24T20:42:59.213Z,0
2024-03-24T20:44:59.078Z,0
2024-03-24T20:46:59.206Z,0
2024-03-24T20:48:58.890Z,0
2024-03-24T20:50:59.089Z,0
2024-03-24T20:52:58.935Z,0
2024-03-24T20:54:59.136Z,0
2024-03-24T20:56:59.179Z,0
2024-03-24T20:58:58.992Z,0
2024-03-24T21:00:59.034Z,0
2024-03-24T21:02:59.031Z,0
2024-03-24T21:04:58.831Z,0
2024-03-24T21:06:59.109Z,0
2024-03-24T21:08:59.149Z,0
2024-03-24T21:10:59.009Z,0
2024-03-24T21:12:58.890Z,0
2024-03-24T21:14:59.311Z,0
2024-03-24T21:16:58.901Z,0
2024-03-24T21:18:58.893Z,0
2024-03-24T21:20:59.048Z,0
2024-03-24T21:22:59.107Z,0
2024-03-24T21:24:58.872Z,0
2024-03-24T21:26:59.102Z,0
2024-03-24T21:28:59.102Z,0
2024-03-24T21:30:59.099Z,0
2024-03-24T21:32:58.973Z,0
2024-03-24T21:34:59.010Z,0
2024-03-24T21:36:59.120Z,1
2024-03-24T21:38:59.101Z,0
2024-03-24T21:40:59.139Z,0
2024-03-24T21:42:58.889Z,0
2024-03-24T21:44:58.928Z,0
2024-03-24T21:46:58.891Z,0
2024-03-24T21:48:58.886Z,0
2024-03-24T21:50:59.037Z,1
2024-03-24T21:52:59.031Z,1
2024-03-24T21:54:59.036Z,1
2024-03-24T21:56:59.219Z,1
2024-03-24T21:58:58.866Z,0
2024-03-24T22:00:59.127Z,0
2024-03-24T22:02:59.038Z,0
2024-03-24T22:04:58.927Z,0
2024-03-24T22:07:01.723Z,0
2024-03-24T22:08:59.198Z,0
2024-03-24T22:10:59.117Z,0
2024-03-24T22:12:58.975Z,0
2024-03-24T22:14:59.179Z,1
2024-03-24T22:16:58.932Z,1
2024-03-24T22:18:58.990Z,1
2024-03-24T22:20:59.111Z,1
2024-03-24T22:22:58.915Z,1
2024-03-24T22:24:58.991Z,1
2024-03-24T22:26:59.048Z,1
2024-03-24T22:28:59.409Z,1
2024-03-24T22:30:59.118Z,1
2024-03-24T22:32:59.121Z,1
2024-03-24T22:34:58.944Z,1
2024-03-24T22:36:58.925Z,1
2024-03-24T22:38:59.084Z,1
2024-03-24T22:40:59.148Z,1
2024-03-24T22:42:58.896Z,1
2024-03-24T22:44:58.879Z,1
2024-03-24T22:46:58.922Z,1
2024-03-24T22:48:58.921Z,1
2024-03-24T22:50:59.290Z,1
2024-03-24T22:52:59.424Z,1
2024-03-24T22:55:08.606Z,1
2024-03-24T22:57:00.410Z,1
2024-03-24T23:02:15.151Z,1
2024-03-24T23:04:09.704Z,1
2024-03-24T23:06:08.876Z,1
2024-03-24T23:08:09.202Z,1
2024-03-24T23:10:22.670Z,1
2024-03-24T23:12:32.836Z,1
2024-03-24T23:14:32.407Z,1
2024-03-24T23:16:31.618Z,1
2024-03-24T23:18:49.450Z,1
2024-03-24T23:20:48.110Z,1
2024-03-24T23:23:02.101Z,1
2024-03-24T23:27:50.779Z,1
2024-03-24T23:32:42.424Z,1
2024-03-24T23:34:36.567Z,1
2024-03-24T23:37:08.059Z,1
2024-03-24T23:39:57.924Z,1
2024-03-24T23:43:53.897Z,1
2024-03-24T23:49:16.330Z,0
2024-03-24T23:51:14.157Z,1
2024-03-24T23:53:13.506Z,1
2024-03-24T23:55:30.817Z,1
2024-03-24T23:57:28.206Z,1
